1891 Severe Cyclonic Storm NOT_NAMED (1891305N10097)


IBTrACS version v04r00. Visit IBTrACS website for data access.
Please direct all questions to the IBTrACS Q and A forum

Storm track - Intensity - Wind Radii - Intensity Data - Source Data - All data

Summary Information

Storm ID 1891305N10097
Start Nov 1 00Z
Landfall Nov 5 06Z, Nov 6 00Z
Max Intensity 64 kt (Nov 1 12Z)
End Nov 7 03Z
ATCF IDs
Track status Best track data.

Storm track plot

Map of storm track

Intensity plots

Map of storm track

Radial wind information

No radial wind information for this storm


Position and Intensity Table

BASIN ISO_TIME_________ NATURE LAT LON DS824 WIND
degrees north degrees east kts
NI 1891-11-01 00:00:00 TS 10.20 97.10 34
NI 03:00:00 TS 10.37 96.63 41
NI 06:00:00 TS 10.60 95.98 49
NI 09:00:00 TS 10.84 95.30 56
NI 12:00:00 TS 11.08 94.65 64
NI 15:00:00 TS 11.33 93.95 64
NI 18:00:00 TS 11.57 93.25 64
NI 21:00:00 TS 11.80 92.54 64
NI 1891-11-02 00:00:00 TS 12.00 91.85 64
NI 03:00:00 TS 12.18 91.17 64
NI 06:00:00 TS 12.32 90.50 64
NI 09:00:00 TS 12.45 89.81 64
NI 12:00:00 TS 12.60 89.12 64
NI 15:00:00 TS 12.80 88.46 64
NI 18:00:00 TS 13.10 87.81 64
NI 21:00:00 TS 13.49 87.17 64
NI 1891-11-03 00:00:00 TS 13.91 86.64 64
NI 03:00:00 TS 14.28 86.24 64
NI 06:00:00 TS 14.62 85.98 64
NI 09:00:00 TS 14.96 85.78 64
NI 12:00:00 TS 15.31 85.65 64
NI 15:00:00 TS 15.69 85.54 64
NI 18:00:00 TS 16.12 85.44 64
NI 21:00:00 TS 16.58 85.36 64
NI 1891-11-04 00:00:00 TS 17.01 85.32 64
NI 03:00:00 TS 17.34 85.30 64
NI 06:00:00 TS 17.60 85.29 64
NI 09:00:00 TS 17.84 85.28 64
NI 12:00:00 TS 18.08 85.29 64
NI 15:00:00 TS 18.35 85.32 64
NI 18:00:00 TS 18.64 85.34 64
NI 21:00:00 TS 18.93 85.35 64
NI 1891-11-05 00:00:00 TS 19.24 85.43 64
NI 03:00:00 TS 19.60 85.62 64
NI 06:00:00 TS 19.97 85.92 64
NI 09:00:00 TS 20.31 86.28 64
NI 12:00:00 TS 20.63 86.69 64
NI 15:00:00 TS 20.95 87.12 64
NI 18:00:00 TS 21.26 87.55 64
NI 21:00:00 TS 21.56 88.00 64
NI 1891-11-06 00:00:00 TS 21.86 88.46 64
NI 03:00:00 TS 22.15 88.94 55
NI 06:00:00 TS 22.44 89.45 47
NI 09:00:00 TS 22.70 89.97 38
NI 12:00:00 TS 22.96 90.52 30
NI 15:00:00 TS 23.25 91.10 30
NI 18:00:00 TS 23.51 91.65 30
NI 21:00:00 TS 23.77 92.23 30
NI 1891-11-07 00:00:00 TS 24.02 92.79 30
NI 03:00:00 NR 24.20 93.20

Source Information

Agency Information
USA
TOKYO
CMA
HKO
NEWDELHI
REUNION
BOM
NADI
WELLINGTON
DS824 n_ind.dat:168:NOT NAMED
TD9636 cons_worldwide_trop_cyclone_18710101-19891231-004:Line=1687
TD9635
NEUMANN
MLC

All available IBTrACS Data

SEASON BASIN SUBBASIN ISO_TIME_________ NATURE LAT LON DIST2LAND LANDFALL IFLAG USA SSHS DS824 LAT DS824 LON DS824 STAGE DS824 WIND TD9636 LAT TD9636 LON TD9636 STAGE STORM SPEED STORM DIR
Year degrees north degrees east km km 1 degrees north degrees east kts degrees north degrees east kts degrees
1891 NI BB 1891-11-01 00:00:00 TS 10.20 97.10 153 153 _________O____ -1 10.20 97.10 TC 34 10 290
1891 NI BB 03:00:00 TS 10.37 96.63 207 207 _________PO___ -1 10.45 96.40 TC 41 10.20 97.10 2 12 290
1891 NI BB 06:00:00 TS 10.60 95.98 273 273 _________OP___ -1 10.70 95.70 TC 49 10.45 96.40 2 14 290
1891 NI BB 09:00:00 TS 10.84 95.30 350 350 _________PP___ -1 10.95 95.00 TC 56 10.70 95.70 2 14 290
1891 NI BB 12:00:00 TS 11.08 94.65 419 419 _________OP___ -1 11.20 94.30 TC 64 10.95 95.00 2 14 290
1891 NI BB 15:00:00 TS 11.33 93.95 505 485 _________PO___ -1 11.46 93.60 TC 64 11.20 94.30 4 15 290
1891 NI BB 18:00:00 TS 11.57 93.25 487 483 _________OP___ -1 11.70 92.90 TC 64 11.44 93.60 4 15 289
1891 NI BB 21:00:00 TS 11.80 92.54 492 492 _________PP___ -1 11.91 92.19 TC 64 11.68 92.89 4 14 287
1891 NI BB 1891-11-02 00:00:00 TS 12.00 91.85 509 506 _________OP___ -1 12.10 91.50 TC 64 11.90 92.19 4 14 286
1891 NI BB 03:00:00 TS 12.18 91.17 530 530 _________PO___ -1 12.26 90.85 TC 64 12.10 91.50 4 14 284
1891 NI BB 06:00:00 TS 12.32 90.50 575 575 _________OP___ -1 12.40 90.20 TC 64 12.24 90.80 4 14 281
1891 NI BB 09:00:00 TS 12.45 89.81 622 615 _________PP___ -1 12.53 89.50 TC 64 12.36 90.12 4 14 282
1891 NI BB 12:00:00 TS 12.60 89.12 668 668 _________OP___ -1 12.70 88.80 TC 64 12.50 89.45 4 14 285
1891 NI BB 15:00:00 TS 12.80 88.46 710 703 _________PO___ -1 12.90 88.13 TC 64 12.70 88.80 4 14 291
1891 NI BB 18:00:00 TS 13.10 87.81 703 627 _________OP___ -1 13.20 87.50 TC 64 12.99 88.11 4 14 299
1891 NI BB 21:00:00 TS 13.49 87.17 627 558 _________PP___ -1 13.64 86.89 TC 64 13.34 87.46 4 14 306
1891 NI BB 1891-11-03 00:00:00 TS 13.91 86.64 551 496 _________OP___ -1 14.10 86.40 TC 64 13.72 86.87 4 12 311
1891 NI BB 03:00:00 TS 14.28 86.24 489 449 _________PO___ -1 14.46 86.09 TC 64 14.10 86.40 4 10 318
1891 NI BB 06:00:00 TS 14.62 85.98 449 410 _________OP___ -1 14.80 85.90 TC 64 14.44 86.06 4 8 327
1891 NI BB 09:00:00 TS 14.96 85.78 402 370 _________PP___ -1 15.14 85.73 TC 64 14.78 85.84 4 8 335
1891 NI BB 12:00:00 TS 15.31 85.65 363 324 _________OP___ -1 15.50 85.60 TC 64 15.13 85.70 4 8 342
1891 NI BB 15:00:00 TS 15.69 85.54 324 282 _________PO___ -1 15.88 85.48 TC 64 15.50 85.60 4 8 346
1891 NI BB 18:00:00 TS 16.12 85.44 282 234 _________OP___ -1 16.30 85.40 TC 64 15.93 85.48 4 9 349
1891 NI BB 21:00:00 TS 16.58 85.36 234 193 _________PP___ -1 16.77 85.33 TC 64 16.38 85.39 4 9 352
1891 NI BB 1891-11-04 00:00:00 TS 17.01 85.32 193 169 _________OP___ -1 17.20 85.30 TC 64 16.81 85.33 4 8 355
1891 NI BB 03:00:00 TS 17.34 85.30 169 146 _________PO___ -1 17.48 85.29 TC 64 17.20 85.30 4 6 356
1891 NI BB 06:00:00 TS 17.60 85.29 146 130 _________OP___ -1 17.70 85.30 TC 64 17.49 85.27 4 5 357
1891 NI BB 09:00:00 TS 17.84 85.28 130 107 _________PP___ -1 17.94 85.29 TC 64 17.74 85.26 4 5 2
1891 NI BB 12:00:00 TS 18.08 85.29 107 92 _________OP___ -1 18.20 85.30 TC 64 17.96 85.27 4 5 5
1891 NI BB 15:00:00 TS 18.35 85.32 92 77 _________PO___ -1 18.49 85.34 TC 64 18.20 85.30 4 6 6
1891 NI BB 18:00:00 TS 18.64 85.34 77 61 _________OP___ -1 18.80 85.40 TC 64 18.48 85.29 4 6 5
1891 NI BB 21:00:00 TS 18.93 85.35 69 39 _________PP___ -1 19.08 85.41 TC 64 18.77 85.30 4 6 8
1891 NI BB 1891-11-05 00:00:00 TS 19.24 85.43 39 15 _________OP___ -1 19.40 85.50 TC 64 19.08 85.36 4 7 21
1891 NI BB 03:00:00 TS 19.60 85.62 15 0 _________PO___ -1 19.80 85.75 TC 64 19.40 85.50 4 9 32
1891 NI BB 06:00:00 TS 19.97 85.92 0 0 _________OP___ -1 20.20 86.10 TC 64 19.74 85.75 4 9 41
1891 NI BB 09:00:00 TS 20.31 86.28 0 0 _________PP___ -1 20.51 86.48 TC 64 20.10 86.08 4 10 47
1891 NI BB 12:00:00 TS 20.63 86.69 0 0 _________OP___ -1 20.80 86.90 TC 64 20.46 86.47 4 10 51
1891 NI BB 15:00:00 TS 20.95 87.12 15 15 _________PO___ -1 21.10 87.34 TC 64 20.80 86.90 4 10 52
1891 NI BB 18:00:00 TS 21.26 87.55 39 22 _________OP___ -1 21.40 87.80 TC 64 21.12 87.31 4 10 53
1891 NI BB 21:00:00 TS 21.56 88.00 20 0 _________PP___ -1 21.70 88.24 TC 64 21.42 87.75 4 10 54
1891 NI BB 1891-11-06 00:00:00 TS 21.86 88.46 0 0 _________OP___ -1 22.00 88.70 TC 64 21.71 88.21 4 11 56
1891 NI BB 03:00:00 TS 22.15 88.94 0 0 _________PO___ -1 22.31 89.19 TC 55 22.00 88.70 4 11 58
1891 NI BB 06:00:00 TS 22.44 89.45 0 0 _________OP___ -1 22.60 89.70 TC 47 22.28 89.19 4 11 60
1891 NI BB 09:00:00 TS 22.70 89.97 0 0 _________PP___ -1 22.85 90.24 TC 38 22.56 89.71 4 11 62
1891 NI BB 12:00:00 TS 22.96 90.52 0 0 _________OP___ -1 23.10 90.80 TC 30 22.83 90.24 4 12 62
1891 NI BB 15:00:00 TS 23.25 91.10 0 0 _________PO___ -1 23.40 91.39 TC 30 23.10 90.80 1 12 62
1891 NI BB 18:00:00 TS 23.51 91.65 0 0 _________OP___ -1 23.70 92.00 TC 30 23.37 91.38 1 12 63
1891 NI BB 21:00:00 TS 23.77 92.23 0 0 _________PP___ -1 23.96 92.60 TC 30 23.65 91.98 1 12 64
1891 NI BB 1891-11-07 00:00:00 TS 24.02 92.79 0 0 _________OP___ -1 24.20 93.20 TC 30 23.93 92.58 1 10 64
1891 NI BB 03:00:00 NR 24.20 93.20 0 __________O___ -1 TC 24.20 93.20 1 8 64